createdAt,value
2018-04-23T00:01:36.400Z,6.93
2018-04-23T00:04:03.916Z,7.33
2018-04-23T00:06:31.479Z,7.73
2018-04-23T00:08:59.000Z,7.93
2018-04-23T00:11:26.592Z,8.73
2018-04-23T00:13:54.205Z,8.33
2018-04-23T00:16:21.784Z,9.60
2018-04-23T00:18:50.093Z,10.27
2018-04-23T00:21:17.659Z,8.63
2018-04-23T00:23:45.214Z,9.03
2018-04-23T00:26:12.771Z,6.70
2018-04-23T00:28:40.375Z,6.53
2018-04-23T00:31:07.938Z,6.30
2018-04-23T00:33:35.535Z,5.87
2018-04-23T00:36:03.833Z,5.63
2018-04-23T00:38:31.440Z,6.50
2018-04-23T00:40:58.999Z,6.00
2018-04-23T00:43:26.579Z,5.80
2018-04-23T00:45:54.888Z,5.57
2018-04-23T00:48:22.487Z,6.37
2018-04-23T00:50:50.047Z,6.70
2018-04-23T00:53:29.343Z,6.60
2018-04-23T00:55:56.924Z,6.93
2018-04-23T00:58:24.497Z,6.93
2018-04-23T01:00:52.116Z,6.13
2018-04-23T01:03:19.691Z,6.03
2018-04-23T01:05:47.231Z,5.90
2018-04-23T01:08:15.559Z,5.93
2018-04-23T01:10:43.083Z,5.97
2018-04-23T01:13:10.616Z,6.57
2018-04-23T01:15:38.169Z,7.77
2018-04-23T01:18:05.731Z,7.33
2018-04-23T01:20:34.068Z,7.57
2018-04-23T01:23:01.621Z,8.20
2018-04-23T01:25:29.201Z,7.03
2018-04-23T01:27:56.725Z,7.40
2018-04-23T01:30:24.318Z,8.13
2018-04-23T01:32:51.839Z,6.33
2018-04-23T01:35:19.415Z,7.00
2018-04-23T01:37:46.977Z,6.60
2018-04-23T01:40:14.577Z,6.43
2018-04-23T01:42:42.129Z,6.03
2018-04-23T01:45:09.683Z,6.40
2018-04-23T01:47:37.257Z,6.47
2018-04-23T01:50:04.908Z,6.10
2018-04-23T01:52:32.436Z,6.33
2018-04-23T01:54:59.972Z,6.40
2018-04-23T01:57:27.519Z,6.50
2018-04-23T01:59:55.815Z,6.20
2018-04-23T02:02:23.401Z,6.47
2018-04-23T02:04:50.928Z,5.97
2018-04-23T02:07:18.508Z,5.67
2018-04-23T02:09:46.074Z,5.87
2018-04-23T02:12:13.635Z,6.00
2018-04-23T02:14:41.240Z,6.40
2018-04-23T02:17:08.816Z,6.53
2018-04-23T02:19:37.147Z,6.67
2018-04-23T02:22:04.690Z,6.67
2018-04-23T02:24:32.261Z,6.70
2018-04-23T02:26:59.819Z,6.60
2018-04-23T02:29:27.408Z,6.23
2018-04-23T02:31:54.979Z,5.97
2018-04-23T02:34:23.268Z,6.03
2018-04-23T02:36:50.853Z,6.57
2018-04-23T02:39:18.375Z,6.27
2018-04-23T02:41:46.006Z,6.27
2018-04-23T02:44:13.534Z,6.53
2018-04-23T02:46:41.108Z,6.30
2018-04-23T02:49:08.639Z,6.27
2018-04-23T02:51:36.160Z,6.50
2018-04-23T02:54:03.738Z,6.90
2018-04-23T02:56:31.273Z,6.43
2018-04-23T02:58:58.857Z,6.50
2018-04-23T03:01:26.508Z,6.10
2018-04-23T03:03:54.091Z,6.60
2018-04-23T03:06:22.376Z,6.50
2018-04-23T03:08:49.935Z,6.13
2018-04-23T03:11:18.248Z,5.87
2018-04-23T03:13:45.848Z,7.10
2018-04-23T03:16:14.216Z,6.23
2018-04-23T03:18:41.753Z,6.43
2018-04-23T03:21:09.346Z,7.43
2018-04-23T03:23:37.680Z,7.40
2018-04-23T03:26:05.222Z,6.27
2018-04-23T03:28:32.778Z,6.57
2018-04-23T03:31:00.368Z,6.50
2018-04-23T03:33:27.930Z,6.77
2018-04-23T03:35:55.451Z,7.47
2018-04-23T03:38:23.002Z,6.83
2018-04-23T03:40:50.572Z,7.17
2018-04-23T03:43:18.895Z,6.80
2018-04-23T03:45:46.463Z,7.23
2018-04-23T03:48:14.045Z,7.30
2018-04-23T03:50:41.616Z,6.90
2018-04-23T03:53:09.932Z,6.87
2018-04-23T03:55:37.578Z,6.47
2018-04-23T03:58:05.139Z,5.87
2018-04-23T04:00:32.695Z,6.73
2018-04-23T04:03:00.252Z,6.93
2018-04-23T04:05:27.798Z,7.80
2018-04-23T04:07:55.359Z,7.00
2018-04-23T04:10:23.664Z,8.50
2018-04-23T04:13:03.108Z,8.50
2018-04-23T04:15:42.266Z,7.13
2018-04-23T04:21:10.312Z,8.53
2018-04-23T04:23:37.895Z,8.47
2018-04-23T04:26:05.476Z,8.63
2018-04-23T04:28:32.989Z,8.53
2018-04-23T04:31:00.529Z,8.73
2018-04-23T04:33:28.870Z,7.80
2018-04-23T04:35:56.437Z,8.60
2018-04-23T04:38:23.976Z,8.33
2018-04-23T04:40:51.530Z,8.57
2018-04-23T04:43:19.063Z,8.27
2018-04-23T04:45:46.650Z,11.93
2018-04-23T04:48:14.228Z,10.27
2018-04-23T04:50:41.796Z,8.77
2018-04-23T04:53:09.339Z,8.87
2018-04-23T04:55:37.613Z,8.17
2018-04-23T04:58:05.157Z,9.37
2018-04-23T05:00:32.740Z,9.30
2018-04-23T05:03:00.359Z,9.90
2018-04-23T05:05:27.913Z,9.73
2018-04-23T05:07:55.536Z,9.57
2018-04-23T05:10:23.091Z,8.17
2018-04-23T05:12:50.663Z,7.70
2018-04-23T05:15:18.208Z,8.33
2018-04-23T05:17:45.846Z,8.57
2018-04-23T05:20:13.404Z,9.50
2018-04-23T05:22:40.983Z,9.30
2018-04-23T05:25:08.538Z,10.40
2018-04-23T05:27:36.153Z,9.00
2018-04-23T05:30:04.451Z,7.67
2018-04-23T05:32:33.033Z,9.27
2018-04-23T05:35:01.457Z,9.60
2018-04-23T05:37:29.017Z,9.33
2018-04-23T05:39:57.669Z,8.97
2018-04-23T05:42:25.237Z,8.97
2018-04-23T05:44:53.627Z,7.80
2018-04-23T05:47:21.188Z,9.77
2018-04-23T05:49:48.753Z,9.23
2018-04-23T05:52:16.375Z,9.20
2018-04-23T05:54:43.940Z,8.03
2018-04-23T05:57:11.476Z,8.63
2018-04-23T05:59:39.053Z,8.23
2018-04-23T06:02:06.605Z,8.10
2018-04-23T06:04:34.177Z,8.53
2018-04-23T06:07:01.784Z,9.23
2018-04-23T06:09:29.359Z,9.77
2018-04-23T06:11:56.922Z,9.50
2018-04-23T06:14:24.528Z,9.80
2018-04-23T06:16:52.832Z,9.20
2018-04-23T06:19:20.411Z,8.63
2018-04-23T06:21:48.097Z,10.10
2018-04-23T06:24:16.589Z,9.63
2018-04-23T06:26:44.205Z,10.13
2018-04-23T06:29:12.598Z,9.40
2018-04-23T06:31:40.280Z,9.40
2018-04-23T06:34:07.871Z,10.40
2018-04-23T06:36:35.483Z,8.97
2018-04-23T06:39:03.077Z,9.67
2018-04-23T06:41:30.624Z,10.13
2018-04-23T06:43:58.193Z,8.60
2018-04-23T06:46:25.831Z,9.63
2018-04-23T06:48:53.452Z,8.93
2018-04-23T06:51:21.027Z,9.50
2018-04-23T06:53:48.641Z,10.13
2018-04-23T06:56:16.219Z,10.67
2018-04-23T06:58:43.867Z,9.20
2018-04-23T07:01:11.443Z,9.40
2018-04-23T07:03:39.162Z,8.80
2018-04-23T07:06:07.468Z,8.40
2018-04-23T07:08:35.048Z,8.93
2018-04-23T07:11:02.624Z,8.60
2018-04-23T07:13:30.472Z,9.00
2018-04-23T07:15:58.043Z,8.17
2018-04-23T07:18:25.658Z,7.80
2018-04-23T07:20:54.019Z,7.70
2018-04-23T07:23:21.593Z,6.97
2018-04-23T07:25:49.921Z,6.07
2018-04-23T07:28:17.480Z,5.00
2018-04-23T07:30:45.434Z,5.40
2018-04-23T07:33:13.237Z,5.30
2018-04-23T07:35:40.783Z,4.97
2018-04-23T07:38:08.418Z,4.17
2018-04-23T07:40:35.966Z,4.17
2018-04-23T07:43:03.662Z,4.47
2018-04-23T07:45:31.206Z,4.10
2018-04-23T07:47:58.784Z,4.70
2018-04-23T07:50:26.312Z,4.37
2018-04-23T07:52:53.871Z,3.90
2018-04-23T07:55:21.433Z,3.63
2018-04-23T07:57:48.992Z,4.23
2018-04-23T08:00:16.676Z,4.10
2018-04-23T08:02:44.252Z,3.80
2018-04-23T08:05:11.831Z,3.80
2018-04-23T08:07:39.409Z,3.90
2018-04-23T08:10:06.960Z,3.47
2018-04-23T08:12:35.292Z,3.67
2018-04-23T08:15:02.852Z,3.87
2018-04-23T08:17:30.538Z,3.67
2018-04-23T08:19:58.097Z,4.00
2018-04-23T08:22:25.749Z,4.07
2018-04-23T08:24:53.930Z,3.70
2018-04-23T08:27:21.523Z,4.43
2018-04-23T08:29:49.816Z,3.97
2018-04-23T08:32:17.421Z,3.77
2018-04-23T08:34:45.010Z,4.10
2018-04-23T08:37:12.646Z,4.10
2018-04-23T08:39:40.334Z,4.03
2018-04-23T08:42:08.008Z,5.17
2018-04-23T08:44:35.723Z,5.30
2018-04-23T08:47:03.256Z,4.40
2018-04-23T08:49:30.901Z,5.10
2018-04-23T08:51:59.199Z,4.50
2018-04-23T08:54:26.995Z,4.77
2018-04-23T08:56:54.541Z,5.60
2018-04-23T08:59:22.172Z,7.03
2018-04-23T09:01:49.746Z,5.17
2018-04-23T09:04:17.483Z,6.63
2018-04-23T09:06:47.510Z,6.20
2018-04-23T09:09:15.052Z,6.10
2018-04-23T09:11:42.770Z,5.20
2018-04-23T09:14:10.274Z,5.80
2018-04-23T09:16:38.004Z,6.37
2018-04-23T09:19:05.553Z,5.80
2018-04-23T09:21:33.276Z,5.63
2018-04-23T09:24:01.685Z,6.23
2018-04-23T09:26:29.255Z,5.60
2018-04-23T09:28:56.793Z,5.47
2018-04-23T09:31:24.354Z,6.27
2018-04-23T09:33:51.904Z,5.53
2018-04-23T09:36:20.243Z,6.30
2018-04-23T09:38:47.838Z,9.07
2018-04-23T09:41:15.397Z,5.80
2018-04-23T09:43:43.007Z,5.50
2018-04-23T09:46:10.576Z,6.40
2018-04-23T09:48:38.160Z,5.20
2018-04-23T09:51:06.880Z,5.50
2018-04-23T09:53:34.582Z,4.77
2018-04-23T09:56:02.105Z,4.40
2018-04-23T09:58:29.700Z,5.87
2018-04-23T10:00:57.221Z,4.63
2018-04-23T10:03:25.691Z,5.33
2018-04-23T10:05:53.312Z,4.60
2018-04-23T10:08:20.875Z,4.90
2018-04-23T10:10:48.467Z,4.50
2018-04-23T10:13:16.032Z,4.60
2018-04-23T10:15:43.704Z,4.83
2018-04-23T10:18:11.310Z,4.77
2018-04-23T10:20:38.892Z,4.47
2018-04-23T10:23:06.430Z,4.40
2018-04-23T10:25:34.036Z,4.70
2018-04-23T10:28:01.598Z,4.63
2018-04-23T10:30:29.284Z,4.77
2018-04-23T10:32:56.943Z,4.67
2018-04-23T10:35:24.530Z,4.53
2018-04-23T10:37:52.391Z,3.97
2018-04-23T10:40:19.913Z,4.27
2018-04-23T10:42:47.487Z,4.20
2018-04-23T10:45:15.012Z,4.37
2018-04-23T10:47:42.555Z,3.93
2018-04-23T10:50:10.165Z,3.83
2018-04-23T10:52:37.693Z,3.37
2018-04-23T10:55:05.277Z,3.77
2018-04-23T10:57:32.980Z,2.87
2018-04-23T11:00:00.549Z,2.77
2018-04-23T11:02:28.251Z,2.90
2018-04-23T11:04:55.826Z,3.67
2018-04-23T11:07:23.399Z,3.50
2018-04-23T11:09:50.968Z,3.57
2018-04-23T11:12:18.690Z,3.27
2018-04-23T11:14:46.241Z,4.00
2018-04-23T11:17:14.748Z,4.00
2018-04-23T11:19:42.348Z,3.87
2018-04-23T11:22:09.928Z,4.10
2018-04-23T11:24:37.588Z,4.20
2018-04-23T11:27:05.237Z,3.97
2018-04-23T11:29:32.808Z,4.17
2018-04-23T11:32:00.343Z,4.00
2018-04-23T11:34:27.926Z,3.70
2018-04-23T11:36:55.508Z,3.73
2018-04-23T11:39:23.888Z,4.47
2018-04-23T11:41:52.215Z,4.17
2018-04-23T11:44:19.762Z,3.93
2018-04-23T11:46:47.410Z,4.10
2018-04-23T11:49:15.088Z,4.33
2018-04-23T11:51:42.750Z,4.33
2018-04-23T11:54:10.413Z,4.23
2018-04-23T11:56:38.224Z,4.57
2018-04-23T11:59:05.801Z,4.90
2018-04-23T12:01:33.459Z,4.70
2018-04-23T12:04:01.777Z,3.80
2018-04-23T12:06:29.336Z,4.27
2018-04-23T12:08:56.881Z,3.77
2018-04-23T12:11:25.171Z,4.03
2018-04-23T12:13:52.735Z,3.93
2018-04-23T12:16:20.364Z,4.20
2018-04-23T12:18:48.684Z,4.07
2018-04-23T12:21:16.281Z,4.47
2018-04-23T12:23:43.805Z,4.53
2018-04-23T12:26:11.646Z,4.10
2018-04-23T12:28:39.233Z,4.80
2018-04-23T12:31:06.988Z,4.10
2018-04-23T12:37:20.505Z,3.53
2018-04-23T12:39:48.855Z,3.37
2018-04-23T12:42:16.395Z,3.50
2018-04-23T12:44:44.451Z,4.17
2018-04-23T12:47:12.495Z,4.27
2018-04-23T12:49:41.571Z,4.17
2018-04-23T12:52:09.155Z,4.50
2018-04-23T12:54:36.702Z,4.50
2018-04-23T12:57:05.257Z,4.17
2018-04-23T12:59:33.105Z,3.97
2018-04-23T13:02:00.714Z,4.27
2018-04-23T13:04:29.130Z,4.83
2018-04-23T13:06:56.703Z,3.83
2018-04-23T13:09:24.281Z,4.70
2018-04-23T13:11:51.820Z,5.17
2018-04-23T13:14:19.395Z,4.60
2018-04-23T13:16:46.991Z,4.80
2018-04-23T13:19:14.559Z,4.60
2018-04-23T13:21:42.185Z,4.67
2018-04-23T13:24:09.719Z,4.60
2018-04-23T13:26:37.289Z,5.03
2018-04-23T13:29:05.001Z,5.33
2018-04-23T13:31:32.557Z,5.27
2018-04-23T13:34:00.586Z,4.40
2018-04-23T13:36:28.368Z,4.87
2018-04-23T13:38:55.915Z,5.33
2018-04-23T13:41:23.574Z,5.37
2018-04-23T13:43:51.158Z,5.20
2018-04-23T13:46:18.773Z,5.00
2018-04-23T13:48:46.408Z,5.70
2018-04-23T13:51:14.022Z,4.70
2018-04-23T13:53:41.900Z,4.70
2018-04-23T13:56:09.645Z,4.83
2018-04-23T13:58:37.193Z,4.97
2018-04-23T14:01:04.749Z,5.63
2018-04-23T14:03:32.321Z,4.83
2018-04-23T14:05:59.993Z,5.37
2018-04-23T14:08:27.597Z,4.67
2018-04-23T14:10:55.205Z,6.07
2018-04-23T14:13:22.774Z,6.07
2018-04-23T14:15:50.513Z,5.07
2018-04-23T14:18:18.100Z,5.80
2018-04-23T14:20:45.713Z,5.90
2018-04-23T14:23:14.038Z,6.40
2018-04-23T14:25:41.652Z,6.13
2018-04-23T14:28:09.287Z,6.00
2018-04-23T14:30:37.776Z,4.97
2018-04-23T14:33:05.460Z,5.30
2018-04-23T14:35:33.188Z,5.27
2018-04-23T14:38:00.832Z,5.40
2018-04-23T14:40:28.360Z,6.13
2018-04-23T14:42:56.091Z,5.70
2018-04-23T14:45:23.747Z,4.87
2018-04-23T14:47:51.258Z,6.47
2018-04-23T14:50:18.848Z,5.07
2018-04-23T14:52:46.426Z,4.87
2018-04-23T14:55:13.991Z,4.67
2018-04-23T14:57:41.857Z,5.50
2018-04-23T15:00:10.167Z,4.60
2018-04-23T15:02:37.809Z,5.30
2018-04-23T15:05:05.369Z,4.70
2018-04-23T15:07:32.974Z,4.90
2018-04-23T15:10:00.655Z,5.27
2018-04-23T15:12:28.297Z,6.03
2018-04-23T15:14:55.886Z,5.87
2018-04-23T15:17:24.319Z,5.07
2018-04-23T15:19:51.899Z,5.73
2018-04-23T15:22:19.505Z,4.73
2018-04-23T15:24:47.801Z,5.00
2018-04-23T15:27:15.376Z,5.80
2018-04-23T15:29:43.004Z,5.80
2018-04-23T15:32:10.621Z,5.50
2018-04-23T15:34:38.263Z,4.80
2018-04-23T15:37:05.839Z,5.60
2018-04-23T15:39:33.492Z,5.67
2018-04-23T15:42:01.061Z,5.37
2018-04-23T15:44:28.636Z,4.90
2018-04-23T15:46:56.181Z,3.87
2018-04-23T15:49:24.727Z,3.97
2018-04-23T15:51:53.279Z,4.27
2018-04-23T15:54:20.881Z,3.53
2018-04-23T15:56:48.454Z,3.73
2018-04-23T15:59:15.987Z,3.47
2018-04-23T16:01:43.655Z,3.43
2018-04-23T16:04:11.228Z,3.13
2018-04-23T16:06:38.766Z,2.77
2018-04-23T16:09:06.344Z,3.20
2018-04-23T16:11:33.907Z,3.63
2018-04-23T16:14:01.481Z,3.27
2018-04-23T16:16:29.027Z,3.70
2018-04-23T16:18:56.601Z,3.23
2018-04-23T16:21:24.173Z,3.23
2018-04-23T16:23:56.435Z,3.60
2018-04-23T16:26:23.979Z,3.03
2018-04-23T16:28:54.885Z,3.03
2018-04-23T16:31:22.453Z,3.60
2018-04-23T16:33:49.999Z,3.30
2018-04-23T16:36:17.579Z,3.73
2018-04-23T16:38:45.223Z,4.67
2018-04-23T16:41:13.584Z,4.03
2018-04-23T16:43:41.166Z,3.37
2018-04-23T16:46:09.494Z,3.60
2018-04-23T16:48:37.034Z,3.97
2018-04-23T16:51:04.629Z,3.53
2018-04-23T16:53:32.201Z,3.80
2018-04-23T16:55:59.769Z,3.43
2018-04-23T16:58:28.125Z,3.50
2018-04-23T17:00:55.712Z,3.73
2018-04-23T17:03:23.264Z,4.53
2018-04-23T17:05:50.824Z,3.87
2018-04-23T17:08:19.182Z,4.10
2018-04-23T17:10:46.714Z,4.00
2018-04-23T17:13:14.354Z,4.40
2018-04-23T17:15:41.888Z,4.37
2018-04-23T17:18:10.230Z,4.60
2018-04-23T17:20:37.788Z,4.23
2018-04-23T17:23:05.382Z,3.83
2018-04-23T17:25:32.949Z,3.80
2018-04-23T17:28:01.285Z,4.00
2018-04-23T17:30:28.887Z,3.77
2018-04-23T17:32:56.444Z,3.53
2018-04-23T17:35:24.073Z,4.50
2018-04-23T17:37:51.631Z,4.40
2018-04-23T17:40:19.194Z,3.83
2018-04-23T17:42:46.715Z,3.63
2018-04-23T17:45:14.289Z,4.50
2018-04-23T17:47:41.912Z,4.33
2018-04-23T17:50:10.226Z,3.80
2018-04-23T17:52:37.902Z,3.53
2018-04-23T17:55:05.420Z,4.10
2018-04-23T17:57:33.725Z,3.80
2018-04-23T18:00:01.301Z,4.07
2018-04-23T18:02:28.903Z,4.60
2018-04-23T18:04:56.432Z,4.00
2018-04-23T18:07:23.965Z,4.13
2018-04-23T18:09:51.541Z,4.13
2018-04-23T18:12:19.113Z,4.60
2018-04-23T18:14:46.663Z,3.90
2018-04-23T18:17:14.262Z,4.23
2018-04-23T18:19:41.825Z,4.60
2018-04-23T18:22:09.583Z,4.40
2018-04-23T18:24:37.180Z,4.30
2018-04-23T18:27:04.775Z,4.20
2018-04-23T18:29:32.327Z,4.53
2018-04-23T18:31:59.945Z,4.33
2018-04-23T18:34:27.521Z,3.70
2018-04-23T18:36:55.113Z,4.10
2018-04-23T18:39:22.744Z,4.50
2018-04-23T18:41:50.352Z,4.33
2018-04-23T18:44:17.925Z,5.10
2018-04-23T18:46:45.521Z,4.20
2018-04-23T18:49:13.125Z,4.37
2018-04-23T18:51:40.717Z,3.90
2018-04-23T18:54:09.049Z,4.23
2018-04-23T18:56:36.612Z,4.63
2018-04-23T18:59:04.232Z,4.73
2018-04-23T19:01:32.053Z,5.17
2018-04-23T19:03:59.622Z,4.63
2018-04-23T19:06:27.199Z,4.63
2018-04-23T19:08:54.727Z,4.10
2018-04-23T19:11:22.344Z,4.97
2018-04-23T19:13:49.960Z,3.93
2018-04-23T19:16:17.524Z,4.83
2018-04-23T19:18:45.108Z,5.33
2018-04-23T19:21:12.675Z,4.90
2018-04-23T19:23:41.004Z,4.40
2018-04-23T19:26:08.565Z,5.20
2018-04-23T19:28:36.164Z,4.67
2018-04-23T19:31:03.782Z,4.07
2018-04-23T19:33:31.398Z,4.23
2018-04-23T19:35:58.976Z,4.47
2018-04-23T19:38:27.326Z,4.07
2018-04-23T19:40:55.691Z,4.20
2018-04-23T19:43:23.994Z,5.37
2018-04-23T19:45:51.573Z,5.50
2018-04-23T19:48:19.157Z,4.53
2018-04-23T19:50:46.716Z,4.43
2018-04-23T19:53:14.253Z,4.90
2018-04-23T19:55:41.820Z,4.80
2018-04-23T19:58:09.358Z,4.43
2018-04-23T20:00:36.980Z,4.00
2018-04-23T20:03:04.477Z,5.03
2018-04-23T20:05:32.058Z,4.27
2018-04-23T20:07:59.607Z,4.33
2018-04-23T20:10:27.240Z,4.93
2018-04-23T20:12:54.807Z,4.80
2018-04-23T20:15:23.098Z,4.30
2018-04-23T20:17:50.660Z,4.50
2018-04-23T20:20:18.185Z,4.90
2018-04-23T20:22:45.769Z,4.70
2018-04-23T20:25:13.323Z,5.00
2018-04-23T20:27:41.672Z,4.70
2018-04-23T20:30:10.029Z,4.10
2018-04-23T20:32:37.567Z,3.90
2018-04-23T20:35:05.138Z,4.70
2018-04-23T20:37:32.711Z,4.60
2018-04-23T20:40:00.260Z,5.07
2018-04-23T20:42:27.844Z,4.30
2018-04-23T20:44:55.436Z,4.90
2018-04-23T20:47:23.806Z,4.30
2018-04-23T20:49:52.196Z,4.97
2018-04-23T20:52:20.487Z,4.20
2018-04-23T20:54:48.041Z,5.30
2018-04-23T20:57:16.367Z,4.43
2018-04-23T20:59:43.989Z,5.00
2018-04-23T21:02:11.551Z,4.80
2018-04-23T21:04:39.167Z,4.40
2018-04-23T21:07:06.700Z,5.30
2018-04-23T21:09:34.305Z,4.53
2018-04-23T21:12:02.631Z,5.00
2018-04-23T21:14:30.187Z,4.47
2018-04-23T21:16:57.743Z,4.57
2018-04-23T21:19:25.296Z,5.23
2018-04-23T21:21:52.948Z,5.00
2018-04-23T21:24:20.475Z,4.73
2018-04-23T21:26:48.088Z,4.97
2018-04-23T21:29:15.664Z,4.57
2018-04-23T21:31:43.205Z,4.53
2018-04-23T21:34:10.761Z,4.93
2018-04-23T21:36:38.304Z,4.47
2018-04-23T21:39:05.896Z,4.30
2018-04-23T21:41:34.020Z,4.57
2018-04-23T21:44:02.358Z,4.50
2018-04-23T21:46:29.996Z,5.33
2018-04-23T21:48:57.527Z,4.90
2018-04-23T21:51:25.086Z,4.60
2018-04-23T21:53:52.674Z,5.33
2018-04-23T21:56:20.255Z,5.47
2018-04-23T21:58:47.837Z,4.73
2018-04-23T22:01:15.470Z,4.13
2018-04-23T22:03:43.027Z,4.80
2018-04-23T22:06:10.590Z,4.80
2018-04-23T22:08:38.138Z,4.90
2018-04-23T22:11:05.713Z,4.50
2018-04-23T22:13:33.298Z,3.97
2018-04-23T22:16:00.840Z,5.07
2018-04-23T22:18:28.427Z,4.77
2018-04-23T22:20:55.966Z,5.23
2018-04-23T22:23:23.550Z,5.50
2018-04-23T22:25:51.871Z,5.47
2018-04-23T22:28:19.430Z,4.97
2018-04-23T22:30:46.980Z,4.83
2018-04-23T22:33:14.547Z,4.30
2018-04-23T22:35:42.124Z,3.97
2018-04-23T22:38:09.690Z,4.83
2018-04-23T22:40:37.251Z,4.70
2018-04-23T22:43:04.800Z,4.97
2018-04-23T22:45:32.367Z,5.67
2018-04-23T22:47:59.945Z,4.60
2018-04-23T22:50:27.618Z,4.63
2018-04-23T22:52:55.103Z,4.80
2018-04-23T22:55:22.674Z,4.73
2018-04-23T22:57:50.267Z,4.73
2018-04-23T23:00:17.827Z,4.50
2018-04-23T23:02:45.353Z,4.87
2018-04-23T23:05:12.897Z,4.97
2018-04-23T23:07:40.455Z,4.67
2018-04-23T23:10:08.015Z,4.57
2018-04-23T23:12:36.350Z,4.50
2018-04-23T23:15:03.909Z,5.80
2018-04-23T23:17:31.491Z,4.60
2018-04-23T23:19:59.074Z,6.07
2018-04-23T23:22:27.408Z,4.50
2018-04-23T23:24:54.972Z,4.80
2018-04-23T23:27:22.541Z,5.53
2018-04-23T23:29:50.141Z,4.73
2018-04-23T23:32:17.679Z,4.60
2018-04-23T23:34:45.223Z,4.33
2018-04-23T23:37:12.801Z,4.73
2018-04-23T23:39:41.143Z,6.73
2018-04-23T23:42:08.664Z,5.20
2018-04-23T23:44:36.979Z,4.43
2018-04-23T23:47:04.535Z,4.80
2018-04-23T23:49:32.191Z,5.40
2018-04-23T23:51:59.759Z,4.80
2018-04-23T23:54:27.284Z,4.67
2018-04-23T23:56:54.839Z,4.13
2018-04-23T23:59:22.428Z,4.93
